NWS758 UNBB-UWKD
Flight info
| Callsign | NWS758 |
|---|---|
| Flight time | N/A |
| Altitude | 32000 |
| Route | GIRUR2E GIRUR A489 IDERI P983 ABESA R234 OKETI L158 ORTIM ORTIM1T |
| Aircraft | A321/M-SDE3FGHIRWY/LB1 |
Departure
| Time | 2026-04-30 21:24 |
|---|---|
| Airport | Barnaul Gherman Titov International Airport (UNBB) |
Arrival
| Time | N/A |
|---|---|
| Airport | Kazan International Airport (UWKD) |
| Time | Latitude | Longitude | Altitude | Speed | Heading |
|---|---|---|---|---|---|
| 2026-04-30 20:55 | 53.36376 | 83.55168 | 841 ft | 0 kts | 68° |
| 2026-04-30 21:18 | 53.36379 | 83.55182 | 841 ft | 4 kts | 67° |
| 2026-04-30 21:18 | 53.36404 | 83.55223 | 835 ft | 6 kts | 13° |
| 2026-04-30 21:18 | 53.36436 | 83.55186 | 835 ft | 7 kts | 281° |
| 2026-04-30 21:18 | 53.36414 | 83.55074 | 834 ft | 13 kts | 249° |
| 2026-04-30 21:19 | 53.36374 | 83.54902 | 833 ft | 18 kts | 248° |
| 2026-04-30 21:19 | 53.36319 | 83.54694 | 830 ft | 20 kts | 248° |
| 2026-04-30 21:19 | 53.36264 | 83.54475 | 836 ft | 21 kts | 247° |
| 2026-04-30 21:19 | 53.36213 | 83.54262 | 836 ft | 19 kts | 248° |
| 2026-04-30 21:20 | 53.36159 | 83.54060 | 831 ft | 19 kts | 245° |
| 2026-04-30 21:20 | 53.36108 | 83.53849 | 829 ft | 21 kts | 249° |
| 2026-04-30 21:20 | 53.36050 | 83.53612 | 828 ft | 22 kts | 246° |
| 2026-04-30 21:20 | 53.35991 | 83.53371 | 833 ft | 21 kts | 247° |
| 2026-04-30 21:21 | 53.36033 | 83.53245 | 828 ft | 15 kts | 335° |
| 2026-04-30 21:21 | 53.36107 | 83.53140 | 836 ft | 17 kts | 272° |
| 2026-04-30 21:21 | 53.35998 | 83.52688 | 833 ft | 21 kts | 248° |
| 2026-04-30 21:22 | 53.35965 | 83.52556 | 838 ft | 1 kts | 246° |
| 2026-04-30 21:22 | 53.35990 | 83.52649 | 832 ft | 7 kts | 66° |
| 2026-04-30 21:23 | 53.35992 | 83.52655 | 839 ft | 0 kts | 66° |
| 2026-04-30 21:23 | 53.36060 | 83.52928 | 834 ft | 61 kts | 67° |
| 2026-04-30 21:23 | 53.36720 | 83.55555 | 941 ft | 166 kts | 68° |
| 2026-04-30 21:24 | 53.37165 | 83.57269 | 1726 ft | 160 kts | 66° |
| 2026-04-30 21:24 | 53.37922 | 83.58649 | 2341 ft | 168 kts | 23° |
| 2026-04-30 21:24 | 53.39092 | 83.58623 | 2801 ft | 185 kts | 335° |
| 2026-04-30 21:24 | 53.40026 | 83.57049 | 3002 ft | 205 kts | 291° |
| 2026-04-30 21:25 | 53.40698 | 83.51914 | 3251 ft | 248 kts | 281° |
| 2026-04-30 21:25 | 53.41031 | 83.48995 | 3513 ft | 266 kts | 281° |
| 2026-04-30 21:25 | 53.41390 | 83.45905 | 4107 ft | 272 kts | 281° |
| 2026-04-30 21:26 | 53.42143 | 83.39614 | 5422 ft | 278 kts | 282° |
| 2026-04-30 21:26 | 53.42526 | 83.36466 | 6077 ft | 280 kts | 282° |
| 2026-04-30 21:27 | 53.43317 | 83.30015 | 7378 ft | 284 kts | 282° |
| 2026-04-30 21:27 | 53.43714 | 83.26754 | 7999 ft | 287 kts | 282° |
| 2026-04-30 21:27 | 53.44113 | 83.23455 | 8612 ft | 290 kts | 282° |
| 2026-04-30 21:28 | 53.44915 | 83.16788 | 9821 ft | 294 kts | 282° |
| 2026-04-30 21:28 | 53.45320 | 83.13407 | 10390 ft | 298 kts | 282° |
| 2026-04-30 21:28 | 53.46193 | 83.06133 | 10650 ft | 337 kts | 282° |
| 2026-04-30 21:29 | 53.46659 | 83.02247 | 10951 ft | 348 kts | 281° |
| 2026-04-30 21:29 | 53.48092 | 82.90163 | 12689 ft | 354 kts | 281° |
| 2026-04-30 21:30 | 53.49047 | 82.82018 | 13844 ft | 358 kts | 281° |
| 2026-04-30 21:31 | 53.50493 | 82.69612 | 15493 ft | 364 kts | 281° |
| 2026-04-30 21:31 | 53.51465 | 82.61283 | 16543 ft | 368 kts | 281° |
| 2026-04-30 21:32 | 53.52440 | 82.52793 | 17553 ft | 372 kts | 281° |
| 2026-04-30 21:32 | 53.52928 | 82.48504 | 18053 ft | 374 kts | 281° |
| 2026-04-30 21:32 | 53.53420 | 82.44190 | 18525 ft | 377 kts | 281° |
| 2026-04-30 21:32 | 53.53916 | 82.39848 | 18978 ft | 379 kts | 281° |
| 2026-04-30 21:33 | 53.54411 | 82.35484 | 19422 ft | 382 kts | 281° |
| 2026-04-30 21:33 | 53.55412 | 82.26633 | 20315 ft | 387 kts | 281° |
| 2026-04-30 21:33 | 53.56102 | 82.22248 | 20746 ft | 389 kts | 290° |
| 2026-04-30 21:34 | 53.57232 | 82.18163 | 21147 ft | 392 kts | 298° |
| 2026-04-30 21:34 | 53.59891 | 82.10084 | 21941 ft | 397 kts | 298° |
| 2026-04-30 21:34 | 53.61226 | 82.06005 | 22308 ft | 399 kts | 298° |
| 2026-04-30 21:35 | 53.62563 | 82.01900 | 22685 ft | 401 kts | 298° |
| 2026-04-30 21:35 | 53.63904 | 81.97767 | 23038 ft | 403 kts | 298° |
| 2026-04-30 21:35 | 53.65250 | 81.93606 | 23380 ft | 405 kts | 298° |
| 2026-04-30 21:35 | 53.66603 | 81.89423 | 23732 ft | 407 kts | 298° |
| 2026-04-30 21:36 | 53.67963 | 81.85217 | 24061 ft | 409 kts | 298° |
| 2026-04-30 21:36 | 53.69326 | 81.80986 | 24388 ft | 411 kts | 298° |
| 2026-04-30 21:37 | 53.73425 | 81.68201 | 25337 ft | 417 kts | 298° |
| 2026-04-30 21:37 | 53.74808 | 81.63883 | 25627 ft | 419 kts | 298° |
| 2026-04-30 21:37 | 53.76201 | 81.59529 | 25924 ft | 421 kts | 298° |
| 2026-04-30 21:37 | 53.77592 | 81.55163 | 26210 ft | 423 kts | 298° |
| 2026-04-30 21:38 | 53.78991 | 81.50768 | 26509 ft | 424 kts | 298° |
| 2026-04-30 21:38 | 53.80388 | 81.46379 | 26796 ft | 426 kts | 298° |
| 2026-04-30 21:38 | 53.81794 | 81.41949 | 27059 ft | 428 kts | 297° |
| 2026-04-30 21:38 | 53.83185 | 81.37549 | 27328 ft | 430 kts | 297° |
| 2026-04-30 21:39 | 53.84595 | 81.33079 | 27592 ft | 431 kts | 298° |
| 2026-04-30 21:39 | 53.86012 | 81.28582 | 27836 ft | 433 kts | 297° |
| 2026-04-30 21:39 | 53.87429 | 81.24073 | 28078 ft | 435 kts | 297° |
| 2026-04-30 21:39 | 53.88854 | 81.19527 | 28319 ft | 437 kts | 297° |
| 2026-04-30 21:40 | 53.90277 | 81.14974 | 28564 ft | 438 kts | 297° |
| 2026-04-30 21:40 | 53.91704 | 81.10395 | 28814 ft | 440 kts | 297° |
| 2026-04-30 21:40 | 53.93136 | 81.05786 | 29066 ft | 441 kts | 297° |
| 2026-04-30 21:40 | 53.94572 | 81.01167 | 29300 ft | 443 kts | 297° |
| 2026-04-30 21:41 | 53.96015 | 80.96537 | 29536 ft | 444 kts | 297° |
| 2026-04-30 21:41 | 53.97458 | 80.91890 | 29801 ft | 445 kts | 297° |
| 2026-04-30 21:41 | 53.98874 | 80.87305 | 30140 ft | 443 kts | 297° |
| 2026-04-30 21:41 | 54.00304 | 80.82655 | 30473 ft | 442 kts | 297° |
| 2026-04-30 21:42 | 54.01726 | 80.78023 | 30839 ft | 440 kts | 297° |
| 2026-04-30 21:42 | 54.03138 | 80.73432 | 31249 ft | 436 kts | 297° |
| 2026-04-30 21:42 | 54.04543 | 80.68860 | 31619 ft | 434 kts | 297° |
| 2026-04-30 21:42 | 54.05943 | 80.64307 | 31941 ft | 433 kts | 297° |
| 2026-04-30 21:43 | 54.07319 | 80.59823 | 32131 ft | 432 kts | 296° |
| 2026-04-30 21:43 | 54.08251 | 80.56781 | 32160 ft | 428 kts | 297° |
| 2026-04-30 21:43 | 54.11431 | 80.46388 | 32165 ft | 424 kts | 296° |
| 2026-04-30 21:44 | 54.14153 | 80.37414 | 32164 ft | 425 kts | 296° |
| 2026-04-30 21:44 | 54.16851 | 80.28500 | 32160 ft | 425 kts | 296° |
| 2026-04-30 21:45 | 54.19558 | 80.19521 | 32146 ft | 425 kts | 296° |
| 2026-04-30 21:45 | 54.22258 | 80.10519 | 32151 ft | 426 kts | 296° |
| 2026-04-30 21:46 | 54.24943 | 80.01545 | 32149 ft | 426 kts | 296° |
| 2026-04-30 21:46 | 54.27638 | 79.92511 | 32155 ft | 426 kts | 296° |
| 2026-04-30 21:47 | 54.29876 | 79.84972 | 32156 ft | 426 kts | 296° |
| 2026-04-30 21:47 | 54.32554 | 79.75908 | 32150 ft | 426 kts | 296° |
| 2026-04-30 21:48 | 54.35219 | 79.66853 | 32152 ft | 425 kts | 296° |
| 2026-04-30 21:48 | 54.37874 | 79.57850 | 32153 ft | 425 kts | 295° |
| 2026-04-30 21:49 | 54.40525 | 79.48792 | 32151 ft | 424 kts | 295° |
| 2026-04-30 21:49 | 54.43173 | 79.39715 | 32151 ft | 424 kts | 295° |
| 2026-04-30 21:50 | 54.45791 | 79.30691 | 32151 ft | 424 kts | 295° |
| 2026-04-30 21:50 | 54.48418 | 79.21598 | 32150 ft | 423 kts | 295° |
| 2026-04-30 21:51 | 54.51020 | 79.12566 | 32147 ft | 423 kts | 295° |
| 2026-04-30 21:51 | 54.53626 | 79.03497 | 32143 ft | 422 kts | 294° |
| 2026-04-30 21:52 | 54.56220 | 78.94418 | 32142 ft | 422 kts | 294° |
| 2026-04-30 21:52 | 54.58802 | 78.85346 | 32143 ft | 422 kts | 294° |
| 2026-04-30 21:53 | 54.61366 | 78.76298 | 32146 ft | 422 kts | 294° |
| 2026-04-30 21:53 | 54.63943 | 78.67180 | 32133 ft | 422 kts | 294° |
| 2026-04-30 21:54 | 54.66492 | 78.58108 | 32133 ft | 422 kts | 294° |
| 2026-04-30 21:54 | 54.69052 | 78.48976 | 32134 ft | 421 kts | 294° |
| 2026-04-30 21:55 | 54.71586 | 78.39901 | 32130 ft | 421 kts | 293° |
| 2026-04-30 21:55 | 54.74132 | 78.30749 | 32135 ft | 421 kts | 293° |
| 2026-04-30 21:56 | 54.76671 | 78.21585 | 32131 ft | 421 kts | 293° |
| 2026-04-30 21:56 | 54.79188 | 78.12463 | 32122 ft | 421 kts | 293° |
| 2026-04-30 21:57 | 54.81709 | 78.03284 | 32131 ft | 421 kts | 293° |
| 2026-04-30 21:57 | 54.84226 | 77.94107 | 32126 ft | 420 kts | 293° |
| 2026-04-30 21:58 | 54.86728 | 77.84931 | 32117 ft | 421 kts | 292° |
| 2026-04-30 21:58 | 54.89206 | 77.75793 | 32124 ft | 420 kts | 292° |
| 2026-04-30 21:59 | 54.91695 | 77.66592 | 32116 ft | 420 kts | 292° |
| 2026-04-30 22:00 | 54.94173 | 77.52117 | 32125 ft | 416 kts | 281° |
| 2026-04-30 22:00 | 54.96123 | 77.37471 | 32110 ft | 415 kts | 281° |
| 2026-04-30 22:01 | 54.97418 | 77.27677 | 32116 ft | 415 kts | 281° |
| 2026-04-30 22:01 | 54.98714 | 77.17864 | 32106 ft | 415 kts | 281° |
| 2026-04-30 22:02 | 55.00001 | 77.08055 | 32112 ft | 415 kts | 281° |
| 2026-04-30 22:02 | 55.01273 | 76.98308 | 32097 ft | 415 kts | 281° |
| 2026-04-30 22:03 | 55.02540 | 76.88480 | 32091 ft | 415 kts | 281° |
| 2026-04-30 22:03 | 55.03797 | 76.78612 | 32088 ft | 422 kts | 281° |
| 2026-04-30 22:04 | 55.05090 | 76.68470 | 32083 ft | 434 kts | 281° |
| 2026-04-30 22:05 | 55.07058 | 76.52947 | 32082 ft | 440 kts | 281° |
| 2026-04-30 22:05 | 55.08370 | 76.42510 | 32080 ft | 440 kts | 280° |
| 2026-04-30 22:06 | 55.09662 | 76.32118 | 32073 ft | 439 kts | 280° |
| 2026-04-30 22:06 | 55.11584 | 76.16463 | 32081 ft | 440 kts | 280° |
| 2026-04-30 22:07 | 55.12855 | 76.05996 | 32086 ft | 440 kts | 280° |
| 2026-04-30 22:07 | 55.14117 | 75.95505 | 32090 ft | 440 kts | 279° |
| 2026-04-30 22:08 | 55.15368 | 75.85037 | 32095 ft | 440 kts | 279° |
| 2026-04-30 22:08 | 55.16611 | 75.74628 | 32096 ft | 440 kts | 279° |
| 2026-04-30 22:09 | 55.17851 | 75.64123 | 32096 ft | 440 kts | 279° |
| 2026-04-30 22:09 | 55.19086 | 75.53618 | 32091 ft | 439 kts | 279° |
| 2026-04-30 22:10 | 55.20310 | 75.43120 | 32090 ft | 439 kts | 279° |
| 2026-04-30 22:10 | 55.21517 | 75.32718 | 32087 ft | 439 kts | 279° |
| 2026-04-30 22:11 | 55.23331 | 75.16954 | 32084 ft | 440 kts | 279° |
| 2026-04-30 22:12 | 55.24520 | 75.06472 | 32086 ft | 439 kts | 279° |
| 2026-04-30 22:12 | 55.25695 | 74.95960 | 32086 ft | 439 kts | 278° |
| 2026-04-30 22:13 | 55.26863 | 74.85434 | 32086 ft | 439 kts | 278° |
| 2026-04-30 22:13 | 55.28027 | 74.74922 | 32085 ft | 438 kts | 278° |
| 2026-04-30 22:14 | 55.29172 | 74.64470 | 32086 ft | 438 kts | 278° |
| 2026-04-30 22:14 | 55.30314 | 74.53941 | 32088 ft | 438 kts | 278° |
| 2026-04-30 22:15 | 55.31449 | 74.43441 | 32086 ft | 437 kts | 278° |
| 2026-04-30 22:15 | 55.32572 | 74.32947 | 32071 ft | 437 kts | 278° |
| 2026-04-30 22:16 | 55.33678 | 74.22458 | 32064 ft | 436 kts | 277° |
| 2026-04-30 22:17 | 55.35864 | 74.01555 | 32058 ft | 435 kts | 277° |
| 2026-04-30 22:17 | 55.37480 | 73.85854 | 32056 ft | 435 kts | 277° |
| 2026-04-30 22:18 | 55.39077 | 73.70223 | 32057 ft | 434 kts | 277° |
| 2026-04-30 22:19 | 55.40653 | 73.54528 | 32052 ft | 434 kts | 277° |
| 2026-04-30 22:20 | 55.42219 | 73.38769 | 32054 ft | 436 kts | 277° |
| 2026-04-30 22:20 | 55.43759 | 73.23004 | 32052 ft | 436 kts | 276° |
| 2026-04-30 22:21 | 55.44774 | 73.12473 | 32049 ft | 436 kts | 276° |
| 2026-04-30 22:21 | 55.45786 | 73.01932 | 32049 ft | 436 kts | 276° |
| 2026-04-30 22:22 | 55.46788 | 72.91434 | 32049 ft | 436 kts | 276° |
| 2026-04-30 22:22 | 55.47780 | 72.80894 | 32046 ft | 435 kts | 276° |
| 2026-04-30 22:23 | 55.48750 | 72.70422 | 32049 ft | 435 kts | 276° |
| 2026-04-30 22:23 | 55.49716 | 72.59880 | 32052 ft | 435 kts | 275° |
| 2026-04-30 22:24 | 55.50680 | 72.49332 | 32056 ft | 435 kts | 275° |
| 2026-04-30 22:24 | 55.51635 | 72.38796 | 32059 ft | 434 kts | 275° |
| 2026-04-30 22:25 | 55.52584 | 72.28265 | 32059 ft | 434 kts | 275° |
| 2026-04-30 22:25 | 55.53520 | 72.17735 | 32059 ft | 433 kts | 275° |
| 2026-04-30 22:26 | 55.54885 | 72.02041 | 32060 ft | 432 kts | 275° |
| 2026-04-30 22:27 | 55.55782 | 71.91536 | 32058 ft | 432 kts | 275° |
| 2026-04-30 22:27 | 55.57137 | 71.75777 | 32058 ft | 432 kts | 275° |
| 2026-04-30 22:28 | 55.58459 | 71.60026 | 32054 ft | 432 kts | 274° |
| 2026-04-30 22:29 | 55.60180 | 71.39008 | 32051 ft | 433 kts | 274° |
| 2026-04-30 22:31 | 55.61159 | 71.02023 | 32045 ft | 430 kts | 264° |
| 2026-04-30 22:32 | 55.60639 | 70.75634 | 32052 ft | 431 kts | 264° |
| 2026-04-30 22:33 | 55.60051 | 70.49116 | 32059 ft | 431 kts | 264° |
| 2026-04-30 22:35 | 55.59417 | 70.22754 | 32065 ft | 430 kts | 264° |
| 2026-04-30 22:36 | 55.58715 | 69.96341 | 32064 ft | 429 kts | 263° |
| 2026-04-30 22:37 | 55.58123 | 69.75254 | 32059 ft | 429 kts | 263° |
| 2026-04-30 22:38 | 55.57499 | 69.54242 | 32056 ft | 430 kts | 263° |
| 2026-04-30 22:39 | 55.56999 | 69.38418 | 32063 ft | 430 kts | 263° |
| 2026-04-30 22:40 | 55.56137 | 69.08490 | 32062 ft | 431 kts | 264° |
| 2026-04-30 22:41 | 55.55917 | 68.82001 | 32064 ft | 431 kts | 264° |
| 2026-04-30 22:43 | 55.55420 | 68.50288 | 32065 ft | 430 kts | 264° |
| 2026-04-30 22:44 | 55.55057 | 68.29233 | 32064 ft | 429 kts | 263° |
| 2026-04-30 22:45 | 55.54444 | 67.97767 | 32059 ft | 427 kts | 263° |
| 2026-04-30 22:47 | 55.53978 | 67.66304 | 32053 ft | 426 kts | 263° |
| 2026-04-30 22:48 | 55.53587 | 67.45384 | 32048 ft | 427 kts | 263° |
| 2026-04-30 22:49 | 55.52951 | 67.13859 | 32054 ft | 429 kts | 263° |
| 2026-04-30 22:51 | 55.52226 | 66.82316 | 32060 ft | 430 kts | 262° |
| 2026-04-30 22:52 | 55.51834 | 66.66558 | 32065 ft | 430 kts | 262° |
| 2026-04-30 22:53 | 55.51282 | 66.45474 | 32067 ft | 429 kts | 262° |
| 2026-04-30 22:53 | 55.50832 | 66.29755 | 32062 ft | 428 kts | 261° |
| 2026-04-30 22:55 | 55.49914 | 66.03623 | 32065 ft | 427 kts | 261° |
| 2026-04-30 22:56 | 55.49142 | 65.82698 | 32065 ft | 427 kts | 261° |
| 2026-04-30 22:57 | 55.48139 | 65.56603 | 32057 ft | 428 kts | 260° |
| 2026-04-30 22:58 | 55.47416 | 65.35650 | 32050 ft | 430 kts | 263° |
| 2026-04-30 22:59 | 55.47655 | 65.03972 | 32044 ft | 432 kts | 264° |